Time;durP1;ratioP1;P1;durP2;ratioP2;P2;SDS_P1;SDS_P2;PMS_P1;PMS_P2;Temp;Humidity;BMP_temperature;BMP_pressure;BME280_temperature;BME280_humidity;BME280_pressure;Samples;Min_cycle;Max_cycle;Signal;HPM_P1;HPM_P2
2022/08/07 00:00:18;;;;;;;2.60;0.85;;;15.80;74.00;;;;;;5039748;28;20036;-76
2022/08/07 00:02:44;;;;;;;2.60;1.08;;;15.70;74.10;;;;;;5056426;28;20457;-76
2022/08/07 00:05:10;;;;;;;3.20;1.00;;;15.70;74.30;;;;;;5072890;28;20031;-75
2022/08/07 00:07:35;;;;;;;3.88;0.90;;;15.70;74.30;;;;;;5072489;28;20063;-75
2022/08/07 00:10:01;;;;;;;2.72;1.00;;;15.70;74.40;;;;;;5039436;28;20032;-75
2022/08/07 00:12:27;;;;;;;3.30;0.90;;;15.70;74.60;;;;;;5072679;28;20032;-75
2022/08/07 00:14:52;;;;;;;2.50;0.90;;;15.70;74.50;;;;;;5055807;28;20496;-75
2022/08/07 00:17:18;;;;;;;2.83;1.20;;;15.70;74.70;;;;;;5055936;28;20039;-75
2022/08/07 00:19:45;;;;;;;3.30;1.00;;;15.60;74.70;;;;;;5073826;28;20043;-75
2022/08/07 00:22:11;;;;;;;3.13;1.27;;;15.60;74.70;;;;;;5056372;28;20373;-75
2022/08/07 00:24:36;;;;;;;4.72;1.27;;;15.60;74.80;;;;;;5072812;28;20039;-76
2022/08/07 00:27:02;;;;;;;3.50;1.10;;;15.60;75.00;;;;;;5073855;28;20454;-75
2022/08/07 00:29:28;;;;;;;5.97;1.52;;;15.50;75.00;;;;;;5055902;28;20090;-75
2022/08/07 00:31:58;;;;;;;4.25;1.23;;;15.50;75.10;;;;;;5073809;28;20033;-75
2022/08/07 00:34:25;;;;;;;3.45;1.27;;;15.50;75.10;;;;;;5073671;28;20086;-75
2022/08/07 00:36:50;;;;;;;5.57;1.10;;;15.50;75.10;;;;;;5055521;28;20033;-75
2022/08/07 00:39:16;;;;;;;3.35;1.27;;;15.50;75.30;;;;;;5055745;28;20025;-75
2022/08/07 00:41:49;;;;;;;3.45;1.35;;;15.50;75.50;;;;;;5055509;28;20029;-75
2022/08/07 00:44:15;;;;;;;4.20;1.52;;;15.50;75.50;;;;;;5072064;28;20392;-75
2022/08/07 00:46:40;;;;;;;3.65;1.30;;;15.40;75.50;;;;;;5072196;28;20020;-75
2022/08/07 00:49:08;;;;;;;5.00;1.88;;;15.40;75.50;;;;;;5055967;28;20510;-75
2022/08/07 00:51:34;;;;;;;2.90;1.30;;;15.40;75.60;;;;;;5073295;28;20078;-75
2022/08/07 00:54:00;;;;;;;3.47;1.27;;;15.40;75.70;;;;;;5073626;28;20037;-75
2022/08/07 00:56:27;;;;;;;4.15;1.50;;;15.30;75.70;;;;;;5073563;28;20046;-75
2022/08/07 00:58:53;;;;;;;3.03;1.40;;;15.30;75.90;;;;;;5073606;28;20465;-76
2022/08/07 01:01:19;;;;;;;3.58;1.40;;;15.30;75.90;;;;;;5073553;28;20063;-75
2022/08/07 01:03:45;;;;;;;3.40;1.40;;;15.30;76.00;;;;;;5055244;28;20024;-75
2022/08/07 01:06:11;;;;;;;3.05;1.20;;;15.30;76.10;;;;;;5073023;28;20024;-76
2022/08/07 01:08:39;;;;;;;3.28;1.27;;;15.30;76.20;;;;;;5075012;28;20093;-75
2022/08/07 01:11:05;;;;;;;5.45;1.90;;;15.20;76.30;;;;;;5077257;28;20028;-75
2022/08/07 01:13:31;;;;;;;5.88;1.40;;;15.20;76.30;;;;;;5077320;28;20090;-75
2022/08/07 01:15:58;;;;;;;3.95;1.73;;;15.10;76.40;;;;;;5076813;28;20361;-75
2022/08/07 01:18:23;;;;;;;7.15;1.65;;;15.10;76.50;;;;;;5077185;28;20490;-75
2022/08/07 01:21:09;;;;;;;5.88;1.88;;;15.10;76.60;;;;;;5076954;28;20048;-75
2022/08/07 01:23:35;;;;;;;4.82;2.10;;;15.00;76.80;;;;;;5075195;28;20040;-75
2022/08/07 01:26:02;;;;;;;7.20;2.22;;;15.00;76.90;;;;;;5058787;28;20503;-75
2022/08/07 01:28:28;;;;;;;3.63;1.83;;;14.90;77.10;;;;;;5077278;28;20086;-75
2022/08/07 01:30:55;;;;;;;4.20;1.67;;;14.90;77.30;;;;;;5059033;28;20029;-76
2022/08/07 01:33:22;;;;;;;5.03;2.40;;;14.80;77.40;;;;;;5076920;28;20040;-76
2022/08/07 01:35:48;;;;;;;4.10;1.58;;;14.80;77.60;;;;;;5059190;28;20033;-76
2022/08/07 01:38:13;;;;;;;3.35;1.60;;;14.70;77.60;;;;;;5077093;28;20032;-75
2022/08/07 01:40:41;;;;;;;3.72;1.95;;;14.70;77.80;;;;;;5058647;28;20120;-75
2022/08/07 01:43:06;;;;;;;3.90;1.50;;;14.60;78.00;;;;;;5076495;28;20025;-75
2022/08/07 01:45:33;;;;;;;3.70;1.58;;;14.60;78.20;;;;;;5058652;28;20439;-75
2022/08/07 01:47:59;;;;;;;3.70;2.00;;;14.60;78.40;;;;;;5059114;28;20056;-76
2022/08/07 01:50:26;;;;;;;3.95;1.77;;;14.50;78.50;;;;;;5058798;28;20116;-76
2022/08/07 01:52:54;;;;;;;6.45;1.83;;;14.50;78.70;;;;;;5076419;28;20115;-75
2022/08/07 01:55:28;;;;;;;4.38;1.80;;;14.50;79.00;;;;;;5076235;28;20028;-75
2022/08/07 01:57:58;;;;;;;4.43;2.03;;;14.40;79.00;;;;;;5076548;28;20070;-75
2022/08/07 02:00:28;;;;;;;5.90;2.30;;;14.40;79.10;;;;;;5074974;28;20116;-75
2022/08/07 02:03:00;;;;;;;6.07;1.65;;;14.40;79.20;;;;;;5075979;28;20025;-75
2022/08/07 02:05:35;;;;;;;5.50;2.17;;;14.30;79.40;;;;;;5075980;28;20062;-75
2022/08/07 02:08:06;;;;;;;7.53;2.65;;;14.30;79.60;;;;;;5074489;28;20044;-75
2022/08/07 02:10:34;;;;;;;4.25;1.88;;;14.20;79.60;;;;;;5075823;28;20078;-75
2022/08/07 02:13:01;;;;;;;4.88;2.17;;;14.20;79.70;;;;;;5074600;28;20081;-75
2022/08/07 02:15:29;;;;;;;3.95;2.15;;;14.10;79.80;;;;;;5076084;28;20021;-75
2022/08/07 02:17:56;;;;;;;7.68;2.30;;;14.10;80.00;;;;;;5075824;28;20021;-75
2022/08/07 02:20:22;;;;;;;3.97;1.83;;;14.10;80.20;;;;;;5057756;28;20370;-75
2022/08/07 02:22:50;;;;;;;3.85;1.85;;;14.00;80.20;;;;;;5074371;28;20040;-75
2022/08/07 02:25:18;;;;;;;5.03;2.33;;;14.00;80.40;;;;;;5075795;28;20024;-76
2022/08/07 02:27:46;;;;;;;5.28;2.13;;;14.00;80.50;;;;;;5057940;28;20024;-75
2022/08/07 02:30:12;;;;;;;5.25;2.13;;;13.90;80.60;;;;;;5075734;28;20100;-75
2022/08/07 02:32:38;;;;;;;5.38;2.15;;;13.90;80.70;;;;;;5057906;28;20439;-75
2022/08/07 02:35:06;;;;;;;5.07;2.38;;;13.90;80.80;;;;;;5058191;28;20028;-75
2022/08/07 02:37:35;;;;;;;5.63;2.40;;;13.80;81.00;;;;;;5057934;28;20058;-75
2022/08/07 02:40:03;;;;;;;6.72;2.30;;;13.80;81.10;;;;;;5075730;28;20063;-75
2022/08/07 02:42:31;;;;;;;5.82;2.08;;;13.80;81.20;;;;;;5075296;28;20028;-76
2022/08/07 02:44:58;;;;;;;6.05;2.53;;;13.80;81.40;;;;;;5075666;28;20032;-75
2022/08/07 02:47:24;;;;;;;5.85;2.88;;;13.70;81.40;;;;;;5057408;28;20029;-75
2022/08/07 02:49:50;;;;;;;5.60;2.70;;;13.70;81.60;;;;;;5075178;28;20059;-75
2022/08/07 02:52:23;;;;;;;5.88;2.92;;;13.70;81.70;;;;;;5075028;28;20032;-75
2022/08/07 02:54:52;;;;;;;4.88;2.80;;;13.70;81.90;;;;;;5075051;28;20029;-74
2022/08/07 02:57:22;;;;;;;6.43;2.50;;;13.60;81.90;;;;;;5075213;28;20031;-75
2022/08/07 02:59:49;;;;;;;4.93;2.63;;;13.60;82.00;;;;;;5075201;28;20021;-75
2022/08/07 03:02:15;;;;;;;4.97;2.55;;;13.70;82.20;;;;;;5075234;28;20515;-75
2022/08/07 03:04:43;;;;;;;5.82;2.67;;;13.60;82.20;;;;;;5073640;28;20025;-75
2022/08/07 03:07:09;;;;;;;6.25;2.85;;;13.60;82.30;;;;;;5074823;28;20029;-75
2022/08/07 03:09:35;;;;;;;4.78;2.42;;;13.50;82.40;;;;;;5075106;28;20040;-75
2022/08/07 03:12:04;;;;;;;4.95;2.80;;;13.50;82.50;;;;;;5075359;28;20083;-75
2022/08/07 03:14:30;;;;;;;6.97;2.75;;;13.50;82.70;;;;;;5056932;28;20082;-74
2022/08/07 03:16:56;;;;;;;5.30;2.97;;;13.50;82.80;;;;;;5057220;28;20029;-75
2022/08/07 03:19:23;;;;;;;5.72;2.63;;;13.40;82.90;;;;;;5074740;28;20502;-75
2022/08/07 03:21:50;;;;;;;8.27;2.92;;;13.40;83.00;;;;;;5074997;28;20100;-75
2022/08/07 03:24:16;;;;;;;8.20;3.60;;;13.40;83.10;;;;;;5074871;28;20029;-75
2022/08/07 03:26:43;;;;;;;5.93;3.00;;;13.40;83.20;;;;;;5075001;28;20028;-75
2022/08/07 03:29:12;;;;;;;6.32;3.40;;;13.40;83.40;;;;;;5074548;28;20031;-74
2022/08/07 03:31:39;;;;;;;6.82;3.15;;;13.40;83.50;;;;;;5056212;28;20111;-75
2022/08/07 03:34:08;;;;;;;6.60;3.30;;;13.40;83.70;;;;;;5056668;28;20568;-75
2022/08/07 03:36:36;;;;;;;7.35;3.95;;;13.40;83.70;;;;;;5056738;28;20012;-75
2022/08/07 03:39:06;;;;;;;7.70;4.28;;;13.40;83.80;;;;;;5074522;28;20025;-75
2022/08/07 03:41:32;;;;;;;7.47;4.15;;;13.40;83.90;;;;;;5074118;28;20028;-75
2022/08/07 03:43:58;;;;;;;8.20;4.22;;;13.40;83.90;;;;;;5074200;28;20032;-75
2022/08/07 03:46:25;;;;;;;6.97;3.65;;;13.40;83.90;;;;;;5056386;28;20083;-75
2022/08/07 03:48:51;;;;;;;8.90;4.50;;;13.40;84.10;;;;;;5074354;28;20033;-75
2022/08/07 03:51:19;;;;;;;9.07;4.57;;;13.50;84.10;;;;;;5056357;28;20024;-75
2022/08/07 03:53:45;;;;;;;8.77;4.60;;;13.50;84.20;;;;;;5056608;28;20490;-75
2022/08/07 03:56:12;;;;;;;7.57;4.43;;;13.50;84.20;;;;;;5074179;28;20063;-75
2022/08/07 03:58:38;;;;;;;8.02;4.05;;;13.50;84.20;;;;;;5074384;28;20028;-75
2022/08/07 04:01:07;;;;;;;7.07;4.18;;;13.50;84.30;;;;;;5072693;28;20017;-75
2022/08/07 04:03:33;;;;;;;7.95;3.83;;;13.50;84.40;;;;;;5072758;28;20025;-75
2022/08/07 04:05:59;;;;;;;8.15;4.35;;;13.50;84.30;;;;;;5073706;28;20032;-75
2022/08/07 04:08:25;;;;;;;6.93;4.13;;;13.50;84.30;;;;;;5073177;28;20385;-75
2022/08/07 04:10:51;;;;;;;7.30;4.50;;;13.50;84.40;;;;;;5055311;28;20082;-75
2022/08/07 04:13:17;;;;;;;7.60;4.32;;;13.50;84.50;;;;;;5071665;28;20025;-75
2022/08/07 04:15:43;;;;;;;8.60;4.57;;;13.50;84.60;;;;;;5054853;28;20017;-75
2022/08/07 04:18:14;;;;;;;7.55;4.70;;;13.50;85.20;;;;;;5055035;28;20021;-75
2022/08/07 04:20:41;;;;;;;9.82;5.30;;;13.50;84.70;;;;;;5055206;28;20064;-75
2022/08/07 04:23:08;;;;;;;10.38;4.50;;;13.50;84.70;;;;;;5072933;28;20028;-76
2022/08/07 04:25:37;;;;;;;8.10;5.30;;;13.50;84.70;;;;;;5054851;28;20033;-75
2022/08/07 04:28:06;;;;;;;8.23;5.25;;;13.50;84.80;;;;;;5071893;28;20358;-75
2022/08/07 04:30:34;;;;;;;8.88;4.45;;;13.50;84.90;;;;;;5056702;28;20074;-75
2022/08/07 04:33:00;;;;;;;9.73;5.30;;;13.50;85.00;;;;;;5070582;28;20043;-75
2022/08/07 04:35:26;;;;;;;9.82;4.65;;;13.40;85.00;;;;;;5068982;28;20020;-75
2022/08/07 04:37:52;;;;;;;8.25;4.72;;;13.50;85.20;;;;;;5072372;28;20361;-76
2022/08/07 04:40:18;;;;;;;9.30;4.57;;;13.50;85.20;;;;;;5053434;28;20027;-75
2022/08/07 04:42:44;;;;;;;9.57;5.13;;;13.50;85.30;;;;;;5069587;28;20742;-75
2022/08/07 04:45:10;;;;;;;7.18;4.35;;;13.50;85.40;;;;;;5054690;28;20108;-75
2022/08/07 04:48:03;;;;;;;8.85;4.60;;;13.50;85.60;;;;;;5088459;28;20032;-75
2022/08/07 04:50:54;;;;;;;9.07;4.55;;;13.50;85.60;;;;;;5071396;28;20094;-75
2022/08/07 04:53:20;;;;;;;7.80;4.28;;;13.50;85.60;;;;;;5072462;28;20480;-75
2022/08/07 04:55:58;;;;;;;9.82;5.25;;;13.50;85.60;;;;;;5054663;28;20134;-75
2022/08/07 04:58:41;;;;;;;7.88;4.35;;;13.40;85.70;;;;;;5072558;28;20040;-75
2022/08/07 05:01:20;;;;;;;8.13;4.22;;;13.50;85.90;;;;;;5072250;28;20461;-75
2022/08/07 05:03:48;;;;;;;9.65;4.85;;;13.50;86.00;;;;;;5071411;28;20385;-75
2022/08/07 05:06:29;;;;;;;8.02;4.55;;;13.50;86.00;;;;;;5072192;28;20033;-75
2022/08/07 05:09:03;;;;;;;9.00;4.97;;;13.50;86.10;;;;;;5028372;28;1272389;-75
2022/08/07 05:11:38;;;;;;;8.45;5.22;;;13.50;86.20;;;;;;5072195;28;20040;-75
2022/08/07 05:14:13;;;;;;;12.98;5.45;;;13.60;86.40;;;;;;5072840;28;20043;-75
2022/08/07 05:16:46;;;;;;;11.35;5.30;;;13.60;86.40;;;;;;5071289;28;20025;-75
2022/08/07 05:19:15;;;;;;;8.57;4.97;;;13.60;86.50;;;;;;5072721;28;20381;-75
2022/08/07 05:21:51;;;;;;;9.57;5.15;;;13.60;86.50;;;;;;5071740;28;20027;-75
2022/08/07 05:24:19;;;;;;;13.00;5.10;;;13.60;86.50;;;;;;5054979;28;20017;-75
2022/08/07 05:26:48;;;;;;;9.85;5.68;;;13.70;86.70;;;;;;5072873;28;20796;-75
2022/08/07 05:29:16;;;;;;;9.95;4.95;;;13.70;86.70;;;;;;5072750;28;20029;-75
2022/08/07 05:31:45;;;;;;;11.38;4.88;;;13.70;86.80;;;;;;5073478;28;20055;-75
2022/08/07 05:34:12;;;;;;;11.80;5.95;;;13.70;86.80;;;;;;5055007;28;20461;-76
2022/08/07 05:36:42;;;;;;;8.43;5.63;;;13.70;86.90;;;;;;5055440;28;20503;-75
2022/08/07 05:39:09;;;;;;;8.68;5.38;;;13.80;87.00;;;;;;5071799;28;20449;-75
2022/08/07 05:41:34;;;;;;;10.40;5.47;;;13.80;87.00;;;;;;5071661;28;20021;-75
2022/08/07 05:44:00;;;;;;;10.10;5.97;;;13.80;87.10;;;;;;5072919;28;20025;-75
2022/08/07 05:46:26;;;;;;;9.80;6.03;;;13.80;87.80;;;;;;5072967;28;20366;-75
2022/08/07 05:48:52;;;;;;;11.60;5.68;;;13.90;87.20;;;;;;5055184;28;20036;-75
2022/08/07 05:51:19;;;;;;;11.85;6.38;;;13.90;87.30;;;;;;5073142;28;20459;-75
2022/08/07 05:53:45;;;;;;;11.30;5.82;;;14.00;87.30;;;;;;5055137;28;20029;-76
2022/08/07 05:56:14;;;;;;;11.13;6.47;;;14.00;87.30;;;;;;5025392;28;20076;-75
2022/08/07 05:58:41;;;;;;;9.90;5.15;;;14.10;87.30;;;;;;5076200;28;20028;-75
2022/08/07 06:01:10;;;;;;;12.07;6.13;;;14.10;87.20;;;;;;5075703;28;20100;-75
2022/08/07 06:03:38;;;;;;;10.52;6.10;;;14.20;87.30;;;;;;5069052;28;20123;-75
2022/08/07 06:06:05;;;;;;;10.65;6.55;;;14.20;87.30;;;;;;5057742;28;20079;-75
2022/08/07 06:08:32;;;;;;;8.88;5.57;;;14.30;87.50;;;;;;5074646;28;20056;-76
2022/08/07 06:10:58;;;;;;;10.95;6.13;;;14.30;87.60;;;;;;5024209;28;20039;-75
2022/08/07 06:13:24;;;;;;;9.57;6.18;;;14.40;87.70;;;;;;5073852;28;20032;-76
2022/08/07 06:15:50;;;;;;;9.40;5.15;;;14.40;87.80;;;;;;5075412;28;20032;-75
2022/08/07 06:18:17;;;;;;;9.50;5.95;;;14.40;87.90;;;;;;5041298;28;20494;-76
2022/08/07 06:20:44;;;;;;;10.70;6.20;;;14.50;88.10;;;;;;5057893;28;20032;-75
2022/08/07 06:23:10;;;;;;;12.55;6.30;;;14.50;88.10;;;;;;5075596;28;20021;-75
2022/08/07 06:25:39;;;;;;;10.98;5.45;;;14.60;88.20;;;;;;5080648;28;20040;-75
2022/08/07 06:28:07;;;;;;;9.48;5.60;;;14.60;88.20;;;;;;5063514;28;20448;-76
2022/08/07 06:30:33;;;;;;;9.65;5.10;;;14.70;88.10;;;;;;5077140;28;20102;-75
2022/08/07 06:33:00;;;;;;;10.70;5.78;;;14.70;88.00;;;;;;5064958;28;20052;-75
2022/08/07 06:35:25;;;;;;;9.75;5.38;;;14.80;88.00;;;;;;5072930;28;20028;-75
2022/08/07 06:37:51;;;;;;;9.98;5.13;;;14.80;88.10;;;;;;5061237;28;20039;-75
2022/08/07 06:40:17;;;;;;;10.88;5.38;;;14.90;88.00;;;;;;5041057;28;20028;-76
2022/08/07 06:42:46;;;;;;;10.13;5.30;;;14.90;87.90;;;;;;5075460;28;20025;-75
2022/08/07 06:45:17;;;;;;;11.10;5.28;;;15.00;87.90;;;;;;5075827;28;20024;-75
2022/08/07 06:47:43;;;;;;;10.18;5.05;;;15.00;87.80;;;;;;5075508;28;20029;-75
2022/08/07 06:50:10;;;;;;;11.88;5.00;;;15.10;87.80;;;;;;5095805;28;20020;-76
2022/08/07 06:52:38;;;;;;;7.95;4.63;;;15.10;87.70;;;;;;5077244;28;20093;-76
2022/08/07 06:55:09;;;;;;;9.70;4.90;;;15.20;87.60;;;;;;5095335;28;20069;-76
2022/08/07 06:57:37;;;;;;;8.98;5.03;;;15.20;87.50;;;;;;5063541;28;20034;-76
2022/08/07 07:00:04;;;;;;;7.43;4.18;;;15.30;87.50;;;;;;5074854;28;20024;-75
2022/08/07 07:02:30;;;;;;;8.70;4.43;;;15.30;87.50;;;;;;5056701;28;20040;-76
2022/08/07 07:04:56;;;;;;;9.45;4.97;;;15.40;87.40;;;;;;5074461;28;20043;-75
2022/08/07 07:07:22;;;;;;;8.45;4.85;;;15.40;87.40;;;;;;5074715;28;20476;-75
2022/08/07 07:09:49;;;;;;;8.13;4.22;;;15.50;87.30;;;;;;5074623;28;20159;-76
2022/08/07 07:12:17;;;;;;;7.65;4.28;;;15.60;87.10;;;;;;5074581;28;20373;-76
2022/08/07 07:14:50;;;;;;;6.57;3.60;;;15.60;87.00;;;;;;5074554;28;20020;-76
2022/08/07 07:18:00;;;;;;;7.93;3.58;;;15.70;86.80;;;;;;5074604;28;20021;-75
2022/08/07 07:20:40;;;;;;;9.50;4.15;;;15.70;86.60;;;;;;5032879;28;20041;-76
2022/08/07 07:23:07;;;;;;;7.50;3.88;;;15.80;86.40;;;;;;5056129;28;20033;-75
2022/08/07 07:25:36;;;;;;;7.97;4.40;;;15.80;86.80;;;;;;5067201;28;20029;-76
2022/08/07 07:28:11;;;;;;;6.45;2.97;;;15.90;86.10;;;;;;5073155;28;20437;-75
2022/08/07 07:30:49;;;;;;;8.52;3.40;;;16.00;86.00;;;;;;5074090;28;20029;-76
2022/08/07 07:33:16;;;;;;;9.07;3.65;;;16.10;85.90;;;;;;5074479;28;20055;-75
2022/08/07 07:35:49;;;;;;;10.90;3.22;;;16.10;85.70;;;;;;5040117;28;20025;-75
2022/08/07 07:38:17;;;;;;;6.60;3.70;;;16.20;85.40;;;;;;5074328;28;20028;-75
2022/08/07 07:40:44;;;;;;;6.75;3.15;;;16.20;85.20;;;;;;5074567;28;20056;-75
2022/08/07 07:43:11;;;;;;;7.50;3.65;;;16.30;85.00;;;;;;5039807;28;20040;-75
2022/08/07 07:45:39;;;;;;;5.32;2.63;;;16.40;84.90;;;;;;5039905;28;20037;-76
2022/08/07 07:48:09;;;;;;;6.30;3.30;;;16.40;84.70;;;;;;5073853;28;20103;-75
2022/08/07 07:50:36;;;;;;;5.22;2.78;;;16.50;84.50;;;;;;5076402;28;20043;-75
2022/08/07 07:53:03;;;;;;;6.93;2.20;;;16.60;84.40;;;;;;5076403;28;20139;-76
2022/08/07 07:55:30;;;;;;;5.38;1.50;;;16.60;83.80;;;;;;5059637;28;20059;-74
2022/08/07 07:57:57;;;;;;;3.90;1.38;;;16.70;83.10;;;;;;5093382;28;20024;-74
2022/08/07 08:00:26;;;;;;;4.03;1.50;;;16.70;82.50;;;;;;5073194;28;20032;-73
2022/08/07 08:02:54;;;;;;;8.52;1.45;;;16.80;82.10;;;;;;5073694;28;20024;-74
2022/08/07 08:05:21;;;;;;;3.75;1.23;;;16.90;81.70;;;;;;5073666;28;20117;-74
2022/08/07 08:07:48;;;;;;;4.10;1.70;;;16.90;81.20;;;;;;5055751;28;20056;-75
2022/08/07 08:10:16;;;;;;;2.45;1.05;;;17.00;80.90;;;;;;5038874;28;20377;-75
2022/08/07 08:12:43;;;;;;;3.33;1.10;;;17.10;80.50;;;;;;5073715;28;20476;-75
2022/08/07 08:15:09;;;;;;;4.22;1.20;;;17.10;80.20;;;;;;5056049;28;20037;-75
2022/08/07 08:17:35;;;;;;;3.97;1.40;;;17.20;80.00;;;;;;5055118;28;20032;-75
2022/08/07 08:20:06;;;;;;;3.58;1.80;;;17.30;80.50;;;;;;5073880;28;20031;-75
2022/08/07 08:28:15;;;;;;;3.42;1.27;;;17.60;79.10;;;;;;5074031;28;20116;-75
2022/08/07 08:30:42;;;;;;;4.38;1.73;;;17.70;78.90;;;;;;5073634;28;20024;-75
2022/08/07 08:33:14;;;;;;;3.58;1.50;;;17.70;78.50;;;;;;5039101;28;20392;-74
2022/08/07 08:35:42;;;;;;;2.65;1.25;;;17.80;78.00;;;;;;5073485;28;20403;-75
2022/08/07 08:38:11;;;;;;;2.38;1.13;;;17.90;77.80;;;;;;5073687;28;20025;-75
2022/08/07 08:40:53;;;;;;;2.75;1.05;;;18.00;77.60;;;;;;5073874;28;20032;-74
2022/08/07 08:43:57;;;;;;;3.90;1.40;;;18.10;76.90;;;;;;5073329;28;20027;-75
2022/08/07 08:46:47;;;;;;;6.25;1.23;;;18.20;76.40;;;;;;5073287;28;20082;-74
2022/08/07 08:49:35;;;;;;;3.95;1.35;;;18.30;75.90;;;;;;5073418;28;20037;-75
2022/08/07 08:52:09;;;;;;;2.67;1.00;;;18.40;75.40;;;;;;5055394;28;20132;-74
2022/08/07 08:54:55;;;;;;;3.05;1.10;;;18.50;75.10;;;;;;5073346;28;20020;-75
2022/08/07 08:57:44;;;;;;;2.63;0.93;;;18.50;74.40;;;;;;5073451;28;20021;-74
2022/08/07 09:00:11;;;;;;;3.47;1.13;;;18.70;74.00;;;;;;5073530;28;20040;-75
2022/08/07 09:03:09;;;;;;;3.63;1.10;;;18.70;73.50;;;;;;5055042;28;20025;-75
2022/08/07 09:05:56;;;;;;;3.55;1.27;;;18.80;72.90;;;;;;5072366;28;20053;-76
2022/08/07 09:08:48;;;;;;;2.28;0.95;;;18.90;72.40;;;;;;5055243;28;20087;-75
2022/08/07 09:11:38;;;;;;;2.28;0.90;;;19.00;72.20;;;;;;5072233;28;20021;-75
2022/08/07 09:14:39;;;;;;;2.45;0.73;;;19.10;71.70;;;;;;5054853;28;20111;-75
2022/08/07 09:17:25;;;;;;;3.05;0.90;;;19.10;71.40;;;;;;5054852;28;20021;-75
2022/08/07 09:20:00;;;;;;;2.15;0.95;;;19.30;71.10;;;;;;5073102;28;20024;-75
2022/08/07 09:22:57;;;;;;;3.83;1.02;;;19.30;70.80;;;;;;5072701;28;20029;-75
2022/08/07 09:25:42;;;;;;;1.88;0.80;;;19.40;70.20;;;;;;5053532;28;20065;-75
2022/08/07 09:28:18;;;;;;;3.28;1.20;;;19.50;69.70;;;;;;5054937;28;20067;-75
2022/08/07 09:30:43;;;;;;;2.83;1.00;;;19.60;69.30;;;;;;5076440;28;20473;-75
2022/08/07 09:33:33;;;;;;;2.22;0.82;;;19.70;68.90;;;;;;5076720;28;20032;-75
2022/08/07 09:36:21;;;;;;;2.25;0.80;;;19.80;68.10;;;;;;5059219;28;20066;-75
2022/08/07 09:38:59;;;;;;;2.10;0.73;;;19.90;67.40;;;;;;5076607;28;20036;-75
2022/08/07 09:41:34;;;;;;;1.20;0.60;;;20.00;66.80;;;;;;5076573;28;20024;-75
2022/08/07 09:44:20;;;;;;;2.47;0.60;;;20.10;66.40;;;;;;5076747;28;20391;-76
2022/08/07 09:47:30;;;;;;;3.20;0.82;;;20.10;65.60;;;;;;5076843;28;20368;-75
2022/08/07 09:50:36;;;;;;;2.03;0.60;;;20.30;65.10;;;;;;5013772;28;20044;-75
2022/08/07 09:53:06;;;;;;;2.58;0.63;;;20.40;65.30;;;;;;4995091;28;20109;-75
2022/08/07 09:55:55;;;;;;;7.88;1.08;;;20.50;65.30;;;;;;5061538;28;20082;-75
2022/08/07 09:58:55;;;;;;;3.42;0.98;;;20.60;64.80;;;;;;5058319;28;20024;-75
2022/08/07 10:01:54;;;;;;;2.63;0.90;;;20.70;64.50;;;;;;5076314;28;20032;-75
2022/08/07 10:04:44;;;;;;;3.17;0.80;;;20.80;64.20;;;;;;5076342;28;20056;-75
2022/08/07 10:07:28;;;;;;;5.00;1.23;;;20.90;64.00;;;;;;5076382;28;20016;-75
2022/08/07 10:09:56;;;;;;;;;;;21.00;63.10;;;;;;5058512;28;20468;-75
2022/08/07 10:12:39;;;;;;;2.17;0.80;;;21.10;63.20;;;;;;5076173;28;20353;-75
2022/08/07 10:15:33;;;;;;;2.00;0.90;;;21.10;63.40;;;;;;5057737;28;20066;-76
2022/08/07 10:18:24;;;;;;;1.92;0.73;;;21.20;62.90;;;;;;5057903;28;20055;-75
2022/08/07 10:21:27;;;;;;;3.65;0.88;;;21.30;62.50;;;;;;5075927;28;20048;-76
2022/08/07 10:24:12;;;;;;;1.52;0.55;;;21.40;61.50;;;;;;5075810;28;20024;-76
2022/08/07 10:26:59;;;;;;;1.58;0.65;;;21.50;61.40;;;;;;5091691;28;20102;-75
2022/08/07 10:29:55;;;;;;;4.00;0.85;;;21.60;60.70;;;;;;5075797;28;20032;-75
2022/08/07 10:33:05;;;;;;;5.45;1.20;;;21.70;60.40;;;;;;5075535;28;20031;-76
2022/08/07 10:36:15;;;;;;;3.88;0.90;;;21.90;60.10;;;;;;5090163;28;20029;-76
2022/08/07 10:39:14;;;;;;;1.60;0.73;;;22.10;59.70;;;;;;5067653;28;20044;-76
2022/08/07 10:41:48;;;;;;;3.25;0.80;;;22.40;59.40;;;;;;5056117;28;20044;-75
2022/08/07 10:44:38;;;;;;;1.77;0.80;;;22.50;59.10;;;;;;5057285;28;20460;-75
2022/08/07 10:47:19;;;;;;;2.35;0.80;;;22.70;57.50;;;;;;5075169;28;20082;-75
2022/08/07 10:49:55;;;;;;;2.75;0.88;;;22.90;57.20;;;;;;5075544;28;20073;-75
2022/08/07 10:52:33;;;;;;;1.67;0.73;;;23.10;57.10;;;;;;5075179;28;20435;-75
2022/08/07 10:55:13;;;;;;;2.72;0.80;;;23.30;56.50;;;;;;5057247;28;20021;-75
2022/08/07 10:57:47;;;;;;;3.08;0.70;;;23.50;55.70;;;;;;5075234;28;20511;-75
2022/08/07 11:00:18;;;;;;;1.80;0.82;;;23.70;55.20;;;;;;5075420;28;20051;-76
2022/08/07 11:02:56;;;;;;;1.67;0.63;;;23.90;55.00;;;;;;5075255;28;20029;-75
2022/08/07 11:05:51;;;;;;;2.63;0.98;;;24.00;54.20;;;;;;5075513;28;20384;-76
2022/08/07 11:08:50;;;;;;;4.18;1.30;;;24.30;53.70;;;;;;5074991;28;20036;-75
2022/08/07 11:11:42;;;;;;;2.85;0.85;;;24.60;52.80;;;;;;5074986;28;20017;-76
2022/08/07 11:14:40;;;;;;;2.28;0.77;;;24.80;52.50;;;;;;5056982;28;20388;-76
2022/08/07 11:17:20;;;;;;;1.77;0.82;;;25.10;52.10;;;;;;5074530;28;20476;-76
2022/08/07 11:20:04;;;;;;;2.65;0.90;;;25.30;52.10;;;;;;5074612;28;20534;-76
2022/08/07 11:22:37;;;;;;;1.73;0.60;;;25.60;51.70;;;;;;5056850;28;20016;-76
2022/08/07 11:25:11;;;;;;;3.22;1.05;;;25.90;51.60;;;;;;5074776;28;20094;-75
2022/08/07 11:27:53;;;;;;;3.05;1.05;;;26.10;51.00;;;;;;5074713;28;20029;-75
2022/08/07 11:30:24;;;;;;;1.88;0.88;;;26.30;50.40;;;;;;5073386;28;20028;-76
2022/08/07 11:33:14;;;;;;;1.65;0.80;;;26.50;50.10;;;;;;5074320;28;20062;-76
2022/08/07 11:35:53;;;;;;;2.05;1.00;;;26.70;49.00;;;;;;5056426;28;20020;-76
2022/08/07 11:38:35;;;;;;;1.95;0.85;;;27.00;48.90;;;;;;5074380;28;20032;-76
2022/08/07 11:41:09;;;;;;;2.35;0.88;;;27.10;48.70;;;;;;5074474;28;20153;-73
2022/08/07 11:43:45;;;;;;;2.10;0.80;;;27.50;48.30;;;;;;5056228;28;20023;-76
2022/08/07 11:46:27;;;;;;;2.58;1.00;;;27.70;47.70;;;;;;5056526;28;20024;-76
2022/08/07 11:49:30;;;;;;;3.05;0.90;;;27.90;47.50;;;;;;5073886;28;20528;-76
2022/08/07 11:52:21;;;;;;;1.85;1.15;;;28.00;46.80;;;;;;5089330;28;20032;-75
2022/08/07 11:55:07;;;;;;;4.22;0.95;;;28.10;46.80;;;;;;5056646;28;20031;-76
2022/08/07 11:57:51;;;;;;;2.45;0.75;;;28.20;46.60;;;;;;5074405;28;20147;-76
2022/08/07 12:00:24;;;;;;;2.08;0.90;;;28.40;46.20;;;;;;5056239;28;20077;-76
2022/08/07 12:03:31;;;;;;;2.95;1.00;;;28.40;46.30;;;;;;5073886;28;20079;-75
2022/08/07 12:06:38;;;;;;;1.88;1.00;;;28.50;45.90;;;;;;5074073;28;20021;-75
2022/08/07 12:09:18;;;;;;;3.03;1.00;;;28.30;45.60;;;;;;5072811;28;20115;-76
2022/08/07 12:11:56;;;;;;;1.88;0.90;;;28.30;45.90;;;;;;5056035;28;20016;-77
2022/08/07 12:14:26;;;;;;;1.73;0.90;;;28.50;45.50;;;;;;5073619;28;20099;-75
2022/08/07 12:17:09;;;;;;;2.05;0.80;;;28.70;45.50;;;;;;5055555;28;20108;-76
2022/08/07 12:19:52;;;;;;;2.08;0.98;;;29.00;45.00;;;;;;5073694;28;20035;-75
2022/08/07 12:22:27;;;;;;;2.85;0.93;;;29.30;44.70;;;;;;5055819;28;20044;-75
2022/08/07 12:27:54;;;;;;;2.05;1.10;;;29.90;44.00;;;;;;5074236;28;20035;-76
2022/08/07 12:30:24;;;;;;;1.42;0.70;;;30.30;43.90;;;;;;5071728;28;20056;-76
2022/08/07 12:33:17;;;;;;;1.63;0.82;;;30.40;43.30;;;;;;5071134;28;20687;-74
2022/08/07 12:35:47;;;;;;;1.58;0.70;;;30.70;43.00;;;;;;5054750;28;20024;-76
2022/08/07 12:38:14;;;;;;;1.42;0.60;;;30.80;43.00;;;;;;5072775;28;20040;-77
2022/08/07 12:40:42;;;;;;;2.60;0.90;;;31.00;42.70;;;;;;5071944;28;20020;-77
2022/08/07 12:43:12;;;;;;;1.92;0.80;;;31.10;42.40;;;;;;5073495;28;20028;-76
2022/08/07 12:46:01;;;;;;;1.77;0.90;;;31.30;42.20;;;;;;5054923;28;20033;-77
2022/08/07 12:48:52;;;;;;;1.75;0.88;;;31.50;41.90;;;;;;5041982;28;20561;-76
2022/08/07 12:51:34;;;;;;;1.90;0.85;;;31.60;41.90;;;;;;5073458;28;20457;-77
2022/08/07 12:54:24;;;;;;;2.45;0.73;;;31.70;41.20;;;;;;5073435;28;20025;-76
2022/08/07 12:56:53;;;;;;;1.73;0.77;;;31.80;40.80;;;;;;5073483;28;20060;-76
2022/08/07 12:59:21;;;;;;;2.25;0.60;;;31.90;41.00;;;;;;5055143;28;20115;-74
2022/08/07 13:02:20;;;;;;;1.40;0.70;;;31.90;40.90;;;;;;5055288;28;20074;-76
2022/08/07 13:05:14;;;;;;;2.17;0.90;;;31.90;40.40;;;;;;5075647;28;20032;-76
2022/08/07 13:08:16;;;;;;;1.45;0.65;;;32.00;40.10;;;;;;5077142;28;20088;-76
2022/08/07 13:10:54;;;;;;;3.35;0.70;;;32.20;40.10;;;;;;5059375;28;20024;-76
2022/08/07 13:13:32;;;;;;;2.20;0.70;;;32.40;39.80;;;;;;5077432;28;20029;-76
2022/08/07 13:16:09;;;;;;;1.95;0.90;;;32.60;39.80;;;;;;5059375;28;20384;-76
2022/08/07 13:18:41;;;;;;;1.60;0.70;;;32.80;39.50;;;;;;5059090;28;20021;-76
2022/08/07 13:21:23;;;;;;;1.48;0.80;;;33.10;39.50;;;;;;5076906;28;20060;-76
2022/08/07 13:24:17;;;;;;;1.80;0.88;;;33.20;39.00;;;;;;5058868;28;20082;-76
2022/08/07 13:26:54;;;;;;;1.63;0.80;;;33.50;39.00;;;;;;5075260;28;20059;-76